Time;durP1;ratioP1;P1;durP2;ratioP2;P2;SDS_P1;SDS_P2;PMS_P1;PMS_P2;Temp;Humidity;BMP_temperature;BMP_pressure;BME280_temperature;BME280_humidity;BME280_pressure;Samples;Min_cycle;Max_cycle;Signal;HPM_P1;HPM_P2
2021/01/15 00:00:21;;;;;;;98.75;33.83;;;;;;;;;;5114823;27;20475;-48
2021/01/15 00:02:47;;;;;;;74.97;27.63;;;;;;;;;;5116655;27;20027;-49
2021/01/15 00:05:13;;;;;;;82.20;29.52;;;;;;;;;;5111602;28;20030;-48
2021/01/15 00:07:39;;;;;;;60.25;24.35;;;;;;;;;;5117193;27;20024;-48
2021/01/15 00:10:05;;;;;;;56.33;26.00;;;;;;;;;;5125326;27;20055;-49
2021/01/15 00:12:31;;;;;;;86.22;39.60;;;;;;;;;;5110732;28;20371;-49
2021/01/15 00:14:57;;;;;;;82.22;37.60;;;;;;;;;;5116150;27;20538;-50
2021/01/15 00:17:23;;;;;;;60.08;28.55;;;;;;;;;;5133124;27;20106;-50
2021/01/15 00:19:49;;;;;;;101.78;47.25;;;;;;;;;;5133026;27;20019;-50
2021/01/15 00:22:15;;;;;;;47.40;24.20;;;;;;;;;;5096825;28;20038;-49
2021/01/15 00:24:41;;;;;;;39.28;19.45;;;;;;;;;;5125328;27;20027;-50
2021/01/15 00:27:07;;;;;;;43.58;22.45;;;;;;;;;;5133065;27;20853;-50
2021/01/15 00:29:34;;;;;;;38.92;20.92;;;;;;;;;;5126999;27;20047;-50
2021/01/15 00:32:00;;;;;;;30.77;17.25;;;;;;;;;;5122236;28;20020;-49
2021/01/15 00:34:26;;;;;;;32.95;18.00;;;;;;;;;;5119330;28;20070;-49
2021/01/15 00:36:52;;;;;;;25.40;13.88;;;;;;;;;;5113987;28;20077;-50
2021/01/15 00:39:18;;;;;;;42.90;23.27;;;;;;;;;;5116737;28;20047;-48
2021/01/15 00:41:45;;;;;;;21.35;12.35;;;;;;;;;;5120372;28;20028;-49
2021/01/15 00:44:12;;;;;;;32.95;18.20;;;;;;;;;;5096573;28;20053;-50
2021/01/15 00:46:45;;;;;;;29.02;16.00;;;;;;;;;;5114541;28;20020;-48
2021/01/15 00:49:12;;;;;;;44.97;24.70;;;;;;;;;;5131442;28;20027;-50
2021/01/15 00:51:39;;;;;;;24.63;14.15;;;;;;;;;;5133184;28;20015;-50
2021/01/15 00:54:05;;;;;;;33.58;19.73;;;;;;;;;;5132712;28;20027;-50
2021/01/15 00:56:32;;;;;;;37.08;21.08;;;;;;;;;;5131028;28;20023;-48
2021/01/15 00:58:58;;;;;;;22.65;13.38;;;;;;;;;;5112426;28;20498;-50
2021/01/15 01:01:24;;;;;;;34.65;19.27;;;;;;;;;;5127498;28;20051;-47
2021/01/15 01:03:51;;;;;;;25.52;14.27;;;;;;;;;;5116983;28;20103;-50
2021/01/15 01:06:19;;;;;;;34.63;18.05;;;;;;;;;;5132630;28;20037;-50
2021/01/15 01:08:45;;;;;;;24.00;13.63;;;;;;;;;;5132932;28;20516;-50
2021/01/15 01:11:21;;;;;;;28.23;15.50;;;;;;;;;;5132242;28;20385;-49
2021/01/15 01:13:54;;;;;;;36.15;18.75;;;;;;;;;;5115071;28;20024;-50
2021/01/15 01:16:21;;;;;;;25.10;14.13;;;;;;;;;;5128938;28;20027;-48
2021/01/15 01:18:48;;;;;;;21.55;12.52;;;;;;;;;;5113232;28;20398;-48
2021/01/15 01:21:14;;;;;;;32.20;17.88;;;;;;;;;;5121577;28;20031;-49
2021/01/15 01:23:40;;;;;;;31.35;16.75;;;;;;;;;;5121742;27;20116;-47
2021/01/15 01:26:07;;;;;;;46.30;24.20;;;;;;;;;;5124708;27;20505;-49
2021/01/15 01:28:33;;;;;;;39.33;21.60;;;;;;;;;;5121597;27;20024;-50
2021/01/15 01:30:59;;;;;;;44.13;22.38;;;;;;;;;;5135642;27;20355;-51
2021/01/15 01:33:25;;;;;;;31.33;17.00;;;;;;;;;;5131647;27;20386;-50
2021/01/15 01:35:51;;;;;;;42.67;21.95;;;;;;;;;;5115658;27;20115;-48
2021/01/15 01:38:17;;;;;;;34.72;19.52;;;;;;;;;;5120183;27;20089;-50
2021/01/15 01:40:44;;;;;;;27.98;16.00;;;;;;;;;;5115813;28;20099;-50
2021/01/15 01:43:10;;;;;;;31.65;17.60;;;;;;;;;;5115760;28;20344;-50
2021/01/15 01:45:36;;;;;;;37.20;20.85;;;;;;;;;;5115730;28;20031;-49
2021/01/15 01:48:02;;;;;;;36.83;20.63;;;;;;;;;;5122346;27;20098;-50
2021/01/15 01:50:29;;;;;;;37.25;17.88;;;;;;;;;;5132387;27;20030;-50
2021/01/15 01:52:55;;;;;;;36.63;17.00;;;;;;;;;;5115472;28;20016;-50
2021/01/15 01:55:22;;;;;;;46.28;20.92;;;;;;;;;;5115394;28;20027;-50
2021/01/15 01:57:48;;;;;;;57.17;24.20;;;;;;;;;;5127272;27;20042;-50
2021/01/15 02:00:15;;;;;;;67.35;32.00;;;;;;;;;;5118068;27;20063;-50
2021/01/15 02:02:41;;;;;;;42.92;20.58;;;;;;;;;;5119394;27;20466;-49
2021/01/15 02:05:08;;;;;;;27.05;14.48;;;;;;;;;;5114978;27;20076;-48
2021/01/15 02:07:34;;;;;;;32.25;15.70;;;;;;;;;;5127937;27;20036;-48
2021/01/15 02:10:03;;;;;;;61.35;29.50;;;;;;;;;;5135199;27;20177;-50
2021/01/15 02:12:29;;;;;;;25.52;12.43;;;;;;;;;;5135745;27;20023;-50
2021/01/15 02:14:55;;;;;;;20.95;12.52;;;;;;;;;;5135475;27;20023;-50
2021/01/15 02:17:23;;;;;;;21.13;12.00;;;;;;;;;;5134812;27;20046;-51
2021/01/15 02:19:49;;;;;;;23.92;13.18;;;;;;;;;;5122836;27;20027;-50
2021/01/15 02:22:15;;;;;;;22.45;12.77;;;;;;;;;;5120506;27;20031;-48
2021/01/15 02:24:56;;;;;;;19.05;10.70;;;;;;;;;;5117660;27;20046;-48
2021/01/15 02:27:41;;;;;;;27.10;14.52;;;;;;;;;;5115484;27;20028;-48
2021/01/15 02:30:18;;;;;;;27.77;15.02;;;;;;;;;;5117045;27;20118;-49
2021/01/15 02:33:02;;;;;;;35.53;19.35;;;;;;;;;;5107342;27;20666;-48
2021/01/15 02:35:36;;;;;;;29.98;16.55;;;;;;;;;;5125924;27;20036;-49
2021/01/15 02:38:14;;;;;;;32.10;17.85;;;;;;;;;;5102602;28;20449;-49
2021/01/15 02:41:01;;;;;;;30.00;15.98;;;;;;;;;;5122006;27;20084;-49
2021/01/15 02:43:27;;;;;;;29.50;16.20;;;;;;;;;;5122948;27;20027;-49
2021/01/15 02:45:55;;;;;;;23.88;12.57;;;;;;;;;;5115751;27;20024;-48
2021/01/15 02:48:23;;;;;;;22.55;12.52;;;;;;;;;;5119182;27;20114;-49
2021/01/15 02:50:49;;;;;;;21.95;12.32;;;;;;;;;;5117538;27;20069;-50
2021/01/15 02:53:15;;;;;;;27.85;13.88;;;;;;;;;;5123006;27;20039;-50
2021/01/15 02:55:41;;;;;;;31.63;17.70;;;;;;;;;;5126828;27;20439;-50
2021/01/15 02:58:08;;;;;;;31.40;16.75;;;;;;;;;;5113894;28;20473;-50
2021/01/15 03:00:34;;;;;;;32.78;17.55;;;;;;;;;;5117481;27;20051;-50
2021/01/15 03:03:06;;;;;;;38.20;20.65;;;;;;;;;;5122040;27;20027;-48
2021/01/15 03:05:58;;;;;;;84.00;41.80;;;;;;;;;;5115321;27;20033;-49
2021/01/15 03:08:24;;;;;;;;;;;;;;;;;;5070322;28;20032;-50
2021/01/15 03:10:51;;;;;;;51.97;27.63;;;;;;;;;;5070028;28;19931;-50
2021/01/15 03:13:17;;;;;;;50.15;27.25;;;;;;;;;;5070630;28;20040;-50
2021/01/15 03:15:46;;;;;;;45.33;23.83;;;;;;;;;;5070587;28;20471;-51
2021/01/15 03:18:12;;;;;;;38.97;20.95;;;;;;;;;;5070876;28;20082;-50
2021/01/15 03:20:38;;;;;;;39.42;20.48;;;;;;;;;;5070600;28;20033;-49
2021/01/15 03:23:04;;;;;;;36.13;19.17;;;;;;;;;;5070966;28;20126;-51
2021/01/15 03:25:30;;;;;;;39.70;20.80;;;;;;;;;;5070337;28;20068;-51
2021/01/15 03:27:56;;;;;;;43.00;21.17;;;;;;;;;;5070948;28;20035;-50
2021/01/15 03:30:30;;;;;;;37.15;19.10;;;;;;;;;;5070846;28;20051;-49
2021/01/15 03:33:00;;;;;;;44.22;22.02;;;;;;;;;;5069846;28;20037;-50
2021/01/15 03:35:27;;;;;;;49.35;24.13;;;;;;;;;;5070354;28;20060;-51
2021/01/15 03:37:56;;;;;;;50.60;23.33;;;;;;;;;;5070329;28;20478;-50
2021/01/15 03:40:23;;;;;;;52.25;25.50;;;;;;;;;;5070567;28;20778;-50
2021/01/15 03:42:49;;;;;;;52.03;26.60;;;;;;;;;;5070580;28;20450;-50
2021/01/15 03:45:16;;;;;;;43.90;22.90;;;;;;;;;;5102753;27;20420;-50
2021/01/15 03:47:42;;;;;;;30.50;17.63;;;;;;;;;;5133764;27;20027;-50
2021/01/15 03:50:08;;;;;;;27.75;15.20;;;;;;;;;;5133902;27;20030;-50
2021/01/15 03:52:34;;;;;;;26.05;14.68;;;;;;;;;;5133733;27;20058;-50
2021/01/15 03:55:00;;;;;;;36.08;18.67;;;;;;;;;;5133477;27;20514;-50
2021/01/15 03:57:26;;;;;;;30.23;17.30;;;;;;;;;;5133565;27;20027;-50
2021/01/15 03:59:52;;;;;;;27.15;15.98;;;;;;;;;;5132955;27;20106;-50
2021/01/15 04:02:18;;;;;;;30.77;17.20;;;;;;;;;;5132871;27;20051;-50
2021/01/15 04:04:48;;;;;;;39.35;20.92;;;;;;;;;;5133182;27;20441;-50
2021/01/15 04:07:15;;;;;;;43.42;22.13;;;;;;;;;;5133310;27;20019;-50
2021/01/15 04:09:42;;;;;;;40.60;21.67;;;;;;;;;;5133517;27;20032;-50
2021/01/15 04:12:08;;;;;;;38.30;20.85;;;;;;;;;;5133549;27;20073;-50
2021/01/15 04:14:34;;;;;;;37.70;20.95;;;;;;;;;;5133475;27;20374;-51
2021/01/15 04:17:00;;;;;;;31.70;17.00;;;;;;;;;;5133273;27;20489;-50
2021/01/15 04:19:26;;;;;;;30.75;15.30;;;;;;;;;;5132999;27;20543;-50
2021/01/15 04:21:55;;;;;;;30.00;17.05;;;;;;;;;;5132369;27;20027;-50
2021/01/15 04:24:22;;;;;;;31.30;18.33;;;;;;;;;;5133210;27;20034;-50
2021/01/15 04:26:58;;;;;;;31.67;19.05;;;;;;;;;;5133323;27;20045;-50
2021/01/15 04:29:24;;;;;;;35.17;19.60;;;;;;;;;;5133337;27;20119;-50
2021/01/15 04:31:50;;;;;;;30.45;18.00;;;;;;;;;;5132672;27;20020;-49
2021/01/15 04:34:16;;;;;;;22.15;13.55;;;;;;;;;;5129673;27;20356;-50
2021/01/15 04:36:43;;;;;;;18.17;10.52;;;;;;;;;;5133140;28;20028;-50
2021/01/15 04:39:09;;;;;;;16.45;9.40;;;;;;;;;;5132856;28;20387;-50
2021/01/15 04:41:35;;;;;;;17.27;10.57;;;;;;;;;;5133243;28;20027;-50
2021/01/15 04:44:02;;;;;;;16.98;10.10;;;;;;;;;;5132980;28;20038;-50
2021/01/15 04:46:28;;;;;;;18.25;10.00;;;;;;;;;;5130360;28;20459;-49
2021/01/15 04:48:55;;;;;;;25.40;14.18;;;;;;;;;;5126427;28;20062;-49
2021/01/15 04:51:23;;;;;;;43.47;23.20;;;;;;;;;;5129252;28;20054;-51
2021/01/15 04:53:55;;;;;;;47.13;24.38;;;;;;;;;;5132783;28;20158;-50
2021/01/15 04:56:25;;;;;;;56.97;32.40;;;;;;;;;;5132864;28;20474;-50
2021/01/15 04:58:52;;;;;;;51.65;28.63;;;;;;;;;;5134706;27;20031;-50
2021/01/15 05:01:19;;;;;;;48.33;26.35;;;;;;;;;;5136735;27;20023;-50
2021/01/15 05:03:46;;;;;;;43.40;23.80;;;;;;;;;;5135992;27;20051;-50
2021/01/15 05:06:16;;;;;;;44.13;24.08;;;;;;;;;;5136690;27;20430;-50
2021/01/15 05:08:49;;;;;;;46.65;23.73;;;;;;;;;;5136607;27;20098;-50
2021/01/15 05:11:15;;;;;;;66.90;31.35;;;;;;;;;;5136413;27;20031;-50
2021/01/15 05:13:41;;;;;;;70.32;32.88;;;;;;;;;;5136433;27;21701;-50
2021/01/15 05:16:08;;;;;;;40.70;21.45;;;;;;;;;;5135665;27;20037;-49
2021/01/15 05:18:38;;;;;;;30.08;16.65;;;;;;;;;;5135158;27;20118;-48
2021/01/15 05:21:04;;;;;;;27.20;15.15;;;;;;;;;;5118354;27;20077;-48
2021/01/15 05:23:30;;;;;;;21.73;12.60;;;;;;;;;;5124683;27;20038;-48
2021/01/15 05:25:56;;;;;;;22.10;11.95;;;;;;;;;;5119456;27;20400;-49
2021/01/15 05:28:22;;;;;;;24.63;13.55;;;;;;;;;;5121365;27;20047;-50
2021/01/15 05:30:59;;;;;;;53.58;31.85;;;;;;;;;;5135799;27;20027;-50
2021/01/15 05:33:25;;;;;;;41.20;23.88;;;;;;;;;;5135054;27;20030;-49
2021/01/15 05:35:53;;;;;;;38.22;22.42;;;;;;;;;;5135453;27;20528;-50
2021/01/15 05:38:20;;;;;;;38.38;22.27;;;;;;;;;;5136134;27;20039;-50
2021/01/15 05:40:50;;;;;;;27.45;16.33;;;;;;;;;;5131545;27;20031;-50
2021/01/15 05:43:19;;;;;;;25.83;14.55;;;;;;;;;;5127022;27;20051;-49
2021/01/15 05:46:03;;;;;;;22.73;12.95;;;;;;;;;;5130500;27;20404;-51
2021/01/15 05:48:29;;;;;;;28.45;16.63;;;;;;;;;;5135694;27;20027;-50
2021/01/15 05:50:55;;;;;;;58.70;31.73;;;;;;;;;;5135848;27;20027;-51
2021/01/15 05:53:22;;;;;;;38.65;23.08;;;;;;;;;;5135325;27;20034;-50
2021/01/15 05:55:55;;;;;;;43.78;24.30;;;;;;;;;;5136048;27;20030;-50
2021/01/15 05:58:21;;;;;;;52.45;28.80;;;;;;;;;;5135488;27;21636;-50
2021/01/15 06:00:51;;;;;;;52.28;28.00;;;;;;;;;;5135853;27;20080;-51
2021/01/15 06:03:18;;;;;;;52.70;29.27;;;;;;;;;;5135205;27;20122;-50
2021/01/15 06:05:48;;;;;;;62.90;33.95;;;;;;;;;;5134326;27;20068;-48
2021/01/15 06:08:14;;;;;;;66.05;36.95;;;;;;;;;;5135667;27;20084;-51
2021/01/15 06:10:41;;;;;;;66.72;36.22;;;;;;;;;;5120173;27;20106;-50
2021/01/15 06:13:08;;;;;;;57.63;33.50;;;;;;;;;;5135506;27;20023;-50
2021/01/15 06:15:49;;;;;;;56.47;30.20;;;;;;;;;;5135435;27;20034;-49
2021/01/15 06:18:16;;;;;;;52.92;29.77;;;;;;;;;;5135687;27;20117;-50
2021/01/15 06:20:44;;;;;;;63.78;34.65;;;;;;;;;;5135234;27;20023;-50
2021/01/15 06:23:14;;;;;;;44.28;23.77;;;;;;;;;;5135213;27;20031;-50
2021/01/15 06:25:56;;;;;;;51.80;28.27;;;;;;;;;;5135082;27;20057;-50
2021/01/15 06:28:29;;;;;;;61.00;27.83;;;;;;;;;;5135162;27;20034;-49
2021/01/15 06:30:59;;;;;;;49.80;24.58;;;;;;;;;;5135283;27;20094;-50
2021/01/15 06:33:25;;;;;;;79.15;38.47;;;;;;;;;;5135287;27;20061;-50
2021/01/15 06:35:51;;;;;;;126.18;60.85;;;;;;;;;;5134847;27;20480;-50
2021/01/15 06:38:18;;;;;;;118.80;60.42;;;;;;;;;;5135186;27;20035;-50
2021/01/15 06:40:48;;;;;;;130.32;64.93;;;;;;;;;;5135192;27;20045;-50
2021/01/15 06:43:24;;;;;;;127.13;65.38;;;;;;;;;;5135162;27;20027;-50
2021/01/15 06:46:13;;;;;;;111.40;55.88;;;;;;;;;;5135032;27;20042;-50
2021/01/15 06:48:40;;;;;;;127.07;61.55;;;;;;;;;;5135163;27;20368;-50
2021/01/15 06:51:06;;;;;;;130.32;63.67;;;;;;;;;;5134906;27;20055;-50
2021/01/15 06:53:33;;;;;;;143.38;69.75;;;;;;;;;;5131399;27;20022;-50
2021/01/15 06:55:59;;;;;;;174.77;92.43;;;;;;;;;;5135075;27;20386;-50
2021/01/15 06:58:28;;;;;;;267.23;141.80;;;;;;;;;;5133482;27;20027;-50
2021/01/15 07:01:14;;;;;;;245.45;130.00;;;;;;;;;;5134809;27;20026;-50
2021/01/15 07:03:59;;;;;;;216.05;109.85;;;;;;;;;;5134639;27;20023;-50
2021/01/15 07:06:28;;;;;;;183.05;97.85;;;;;;;;;;5134796;27;20478;-50
2021/01/15 07:08:58;;;;;;;152.40;80.25;;;;;;;;;;5134402;27;20515;-50
2021/01/15 07:11:25;;;;;;;155.25;80.57;;;;;;;;;;5134529;27;20455;-50
2021/01/15 07:13:56;;;;;;;179.40;91.70;;;;;;;;;;5134468;27;20012;-50
2021/01/15 07:16:28;;;;;;;242.00;126.30;;;;;;;;;;5134654;27;20113;-50
2021/01/15 07:18:58;;;;;;;311.45;159.43;;;;;;;;;;5134173;27;20119;-50
2021/01/15 07:21:30;;;;;;;214.18;122.18;;;;;;;;;;5134028;27;20019;-50
2021/01/15 07:24:03;;;;;;;187.10;109.43;;;;;;;;;;5134309;27;20029;-49
2021/01/15 07:26:39;;;;;;;195.23;112.80;;;;;;;;;;5134391;27;20359;-50
2021/01/15 07:29:05;;;;;;;210.80;122.05;;;;;;;;;;5134114;27;20033;-50
2021/01/15 07:31:32;;;;;;;209.02;122.75;;;;;;;;;;5134056;27;20556;-50
2021/01/15 07:34:01;;;;;;;205.02;117.75;;;;;;;;;;5133903;27;20053;-50
2021/01/15 07:36:34;;;;;;;199.68;116.47;;;;;;;;;;5133977;27;20375;-50
2021/01/15 07:39:04;;;;;;;201.18;112.28;;;;;;;;;;5133590;27;20042;-50
2021/01/15 07:41:54;;;;;;;198.90;107.65;;;;;;;;;;5132008;27;20092;-50
2021/01/15 07:44:23;;;;;;;206.82;110.57;;;;;;;;;;5123485;27;20489;-50
2021/01/15 07:46:49;;;;;;;318.98;145.75;;;;;;;;;;5112184;28;20019;-50
2021/01/15 07:49:15;;;;;;;297.42;135.38;;;;;;;;;;5108467;28;20379;-51
2021/01/15 07:51:41;;;;;;;328.05;149.55;;;;;;;;;;5111077;28;20068;-50
2021/01/15 07:54:07;;;;;;;188.45;105.95;;;;;;;;;;5111111;28;20019;-50
2021/01/15 07:56:33;;;;;;;168.63;96.55;;;;;;;;;;5112588;28;20038;-50
2021/01/15 07:58:59;;;;;;;170.55;95.50;;;;;;;;;;5112946;28;20023;-50
2021/01/15 08:01:26;;;;;;;160.00;91.75;;;;;;;;;;5112683;28;20047;-51
2021/01/15 08:03:57;;;;;;;190.02;108.90;;;;;;;;;;5112885;28;20098;-50
2021/01/15 08:06:23;;;;;;;148.98;88.63;;;;;;;;;;5112931;28;20016;-50
2021/01/15 08:08:57;;;;;;;156.63;92.55;;;;;;;;;;5112899;28;20023;-51
2021/01/15 08:11:24;;;;;;;172.82;99.10;;;;;;;;;;5112722;28;20066;-50
2021/01/15 08:13:50;;;;;;;172.32;100.20;;;;;;;;;;5112917;28;20054;-51
2021/01/15 08:16:16;;;;;;;179.57;104.25;;;;;;;;;;5112605;28;20467;-51
2021/01/15 08:18:43;;;;;;;164.32;93.30;;;;;;;;;;5112589;28;20043;-51
2021/01/15 08:21:09;;;;;;;142.65;83.47;;;;;;;;;;5112549;28;20042;-51
2021/01/15 08:23:35;;;;;;;129.65;78.05;;;;;;;;;;5122483;27;20072;-50
2021/01/15 08:26:01;;;;;;;146.32;89.47;;;;;;;;;;5117334;27;20032;-51
2021/01/15 08:28:27;;;;;;;137.98;82.50;;;;;;;;;;5112648;28;20080;-51
2021/01/15 08:31:00;;;;;;;112.38;67.88;;;;;;;;;;5112612;28;20027;-51
2021/01/15 08:33:27;;;;;;;141.02;82.13;;;;;;;;;;5112114;28;20019;-51
2021/01/15 08:35:54;;;;;;;131.25;79.22;;;;;;;;;;5112406;28;20571;-50
2021/01/15 08:38:27;;;;;;;146.02;87.57;;;;;;;;;;5112294;28;20035;-50
2021/01/15 08:40:55;;;;;;;153.45;91.07;;;;;;;;;;5112585;28;20100;-51
2021/01/15 08:43:22;;;;;;;206.77;115.10;;;;;;;;;;5112619;28;20379;-51
2021/01/15 08:45:48;;;;;;;204.60;114.18;;;;;;;;;;5112752;28;20035;-50
2021/01/15 08:48:14;;;;;;;150.27;89.00;;;;;;;;;;5112217;28;20028;-51
2021/01/15 08:50:40;;;;;;;135.70;84.03;;;;;;;;;;5112463;28;20094;-51
2021/01/15 08:53:09;;;;;;;111.05;66.38;;;;;;;;;;5112543;28;20073;-50
2021/01/15 08:55:37;;;;;;;95.07;57.63;;;;;;;;;;5112299;28;20099;-50
2021/01/15 08:58:07;;;;;;;131.27;74.90;;;;;;;;;;5112408;28;20111;-50
2021/01/15 09:00:34;;;;;;;110.55;66.03;;;;;;;;;;5112358;28;20106;-50
2021/01/15 09:03:03;;;;;;;97.40;60.60;;;;;;;;;;5111826;28;20016;-51
2021/01/15 09:05:31;;;;;;;85.97;52.90;;;;;;;;;;5111924;28;20098;-50
2021/01/15 09:07:58;;;;;;;54.97;35.70;;;;;;;;;;5111918;28;20034;-50
2021/01/15 09:10:24;;;;;;;67.60;42.55;;;;;;;;;;5112031;28;20024;-51
2021/01/15 09:12:50;;;;;;;71.10;44.28;;;;;;;;;;5111991;28;20016;-51
2021/01/15 09:15:19;;;;;;;66.10;40.38;;;;;;;;;;5111817;28;20345;-51
2021/01/15 09:17:46;;;;;;;76.78;46.47;;;;;;;;;;5111812;28;20463;-50
2021/01/15 09:20:13;;;;;;;109.40;61.33;;;;;;;;;;5112555;28;20027;-51
2021/01/15 09:22:39;;;;;;;68.68;41.83;;;;;;;;;;5111672;28;20094;-51
2021/01/15 09:25:05;;;;;;;78.72;48.00;;;;;;;;;;5112159;28;20028;-51
2021/01/15 09:27:31;;;;;;;63.03;41.80;;;;;;;;;;5111711;28;20479;-51
2021/01/15 09:29:57;;;;;;;63.10;41.60;;;;;;;;;;5112027;28;20025;-51
2021/01/15 09:32:23;;;;;;;88.43;55.47;;;;;;;;;;5111703;28;20076;-51
2021/01/15 09:34:49;;;;;;;83.28;51.17;;;;;;;;;;5111687;28;20039;-51
2021/01/15 09:37:15;;;;;;;74.15;44.47;;;;;;;;;;5111855;28;20039;-51
2021/01/15 09:39:41;;;;;;;73.45;45.72;;;;;;;;;;5116298;28;20031;-51
2021/01/15 09:42:10;;;;;;;93.60;55.45;;;;;;;;;;5121375;28;20106;-51
2021/01/15 09:44:36;;;;;;;56.95;34.13;;;;;;;;;;5113249;28;20022;-51
2021/01/15 09:47:03;;;;;;;53.08;32.28;;;;;;;;;;5115079;28;20023;-51
2021/01/15 09:49:31;;;;;;;51.88;31.52;;;;;;;;;;5115124;28;20047;-51
2021/01/15 09:51:57;;;;;;;61.78;36.55;;;;;;;;;;5115176;28;20030;-51
2021/01/15 09:54:23;;;;;;;56.00;33.60;;;;;;;;;;5115211;28;20020;-51
2021/01/15 09:56:49;;;;;;;47.78;30.67;;;;;;;;;;5114992;28;20053;-51
2021/01/15 09:59:16;;;;;;;48.30;31.20;;;;;;;;;;5115453;28;20061;-51
2021/01/15 10:01:43;;;;;;;65.32;39.53;;;;;;;;;;5115110;28;20114;-51
2021/01/15 10:04:09;;;;;;;65.28;42.28;;;;;;;;;;5114962;28;20031;-52
2021/01/15 10:06:39;;;;;;;91.30;57.28;;;;;;;;;;5114641;28;20383;-51
2021/01/15 10:09:05;;;;;;;60.75;41.30;;;;;;;;;;5114576;28;20062;-52
2021/01/15 10:11:32;;;;;;;46.85;32.10;;;;;;;;;;5114951;28;20072;-52
2021/01/15 10:14:03;;;;;;;39.65;28.70;;;;;;;;;;5114955;28;20042;-52
2021/01/15 10:16:29;;;;;;;43.20;32.85;;;;;;;;;;5114652;28;20099;-52
2021/01/15 10:18:55;;;;;;;39.25;29.85;;;;;;;;;;5114449;28;20039;-53
2021/01/15 10:21:23;;;;;;;39.47;31.25;;;;;;;;;;5114794;28;20028;-52
2021/01/15 10:23:49;;;;;;;50.85;37.88;;;;;;;;;;5114339;28;20031;-53
2021/01/15 10:26:23;;;;;;;46.40;34.08;;;;;;;;;;5114720;28;20012;-52
2021/01/15 10:28:49;;;;;;;44.30;34.20;;;;;;;;;;5114654;28;20020;-52
2021/01/15 10:31:15;;;;;;;37.92;28.55;;;;;;;;;;5114288;27;20096;-52
2021/01/15 10:33:41;;;;;;;27.20;20.67;;;;;;;;;;5114267;28;20147;-52
2021/01/15 10:36:08;;;;;;;34.97;25.90;;;;;;;;;;5114196;28;20115;-52
2021/01/15 10:38:34;;;;;;;45.28;34.80;;;;;;;;;;5114213;28;20035;-53
2021/01/15 10:41:00;;;;;;;43.28;32.40;;;;;;;;;;5114305;28;20011;-51
2021/01/15 10:43:26;;;;;;;39.75;29.52;;;;;;;;;;5114127;28;20037;-51
2021/01/15 10:45:54;;;;;;;40.92;29.15;;;;;;;;;;5114395;28;20042;-51
2021/01/15 10:48:20;;;;;;;65.60;44.65;;;;;;;;;;5109620;28;20112;-51
2021/01/15 10:50:46;;;;;;;67.38;42.95;;;;;;;;;;5114166;28;20026;-52
2021/01/15 10:53:12;;;;;;;64.60;43.10;;;;;;;;;;5113725;28;20035;-51
2021/01/15 10:55:38;;;;;;;77.38;51.20;;;;;;;;;;5113498;28;20023;-51
2021/01/15 10:58:05;;;;;;;81.13;53.53;;;;;;;;;;5113581;28;20080;-52
2021/01/15 11:00:31;;;;;;;85.93;53.42;;;;;;;;;;5113877;28;20043;-51
2021/01/15 11:02:57;;;;;;;94.88;58.75;;;;;;;;;;5113739;28;20498;-51
2021/01/15 11:05:23;;;;;;;87.57;54.63;;;;;;;;;;5114155;28;20035;-51
2021/01/15 11:07:49;;;;;;;78.65;48.50;;;;;;;;;;5113845;28;20019;-51
2021/01/15 11:10:16;;;;;;;85.13;56.50;;;;;;;;;;5113580;28;20403;-51
2021/01/15 11:12:42;;;;;;;89.70;57.80;;;;;;;;;;5113540;28;20490;-51
2021/01/15 11:15:08;;;;;;;94.30;61.40;;;;;;;;;;5113741;28;20111;-52
2021/01/15 11:17:38;;;;;;;86.90;55.72;;;;;;;;;;5113096;28;20474;-51
2021/01/15 11:20:05;;;;;;;84.93;56.45;;;;;;;;;;5113659;28;20474;-52
2021/01/15 11:22:31;;;;;;;65.18;44.92;;;;;;;;;;5113214;28;20294;-51
2021/01/15 11:24:57;;;;;;;56.13;39.72;;;;;;;;;;5113703;28;20027;-51
2021/01/15 11:27:23;;;;;;;47.75;35.17;;;;;;;;;;5113358;28;20043;-51
2021/01/15 11:29:49;;;;;;;50.60;37.25;;;;;;;;;;5113549;28;20028;-52
2021/01/15 11:32:17;;;;;;;39.55;29.77;;;;;;;;;;5113453;28;20494;-52
2021/01/15 11:34:44;;;;;;;34.25;25.50;;;;;;;;;;5112979;28;20494;-52
2021/01/15 11:37:10;;;;;;;51.38;34.30;;;;;;;;;;5113143;28;20497;-53
2021/01/15 11:39:36;;;;;;;75.18;51.75;;;;;;;;;;5113294;28;20031;-50
2021/01/15 11:42:02;;;;;;;120.30;77.35;;;;;;;;;;5113108;28;20023;-52
2021/01/15 11:44:28;;;;;;;100.38;67.78;;;;;;;;;;5113077;28;20024;-52
2021/01/15 11:46:54;;;;;;;107.53;66.68;;;;;;;;;;5113009;28;20020;-51
2021/01/15 11:49:20;;;;;;;75.18;46.90;;;;;;;;;;5112985;28;20030;-51
2021/01/15 11:51:46;;;;;;;58.63;37.47;;;;;;;;;;5112865;28;20023;-52
2021/01/15 11:54:12;;;;;;;69.38;44.30;;;;;;;;;;5112932;28;20027;-52
2021/01/15 11:56:41;;;;;;;90.10;54.58;;;;;;;;;;5113085;28;20019;-52
2021/01/15 11:59:10;;;;;;;69.07;43.03;;;;;;;;;;5113130;28;20046;-52
2021/01/15 12:01:36;;;;;;;64.53;38.55;;;;;;;;;;5113052;28;20049;-51
2021/01/15 12:04:02;;;;;;;67.03;41.13;;;;;;;;;;5112546;28;20119;-51
2021/01/15 12:06:28;;;;;;;62.38;41.65;;;;;;;;;;5093891;28;20059;-52
2021/01/15 12:08:55;;;;;;;45.35;28.55;;;;;;;;;;5112159;28;20043;-51
2021/01/15 12:11:21;;;;;;;48.88;30.83;;;;;;;;;;5112710;28;20016;-51
2021/01/15 12:13:47;;;;;;;59.95;38.38;;;;;;;;;;5112506;28;20050;-51
2021/01/15 12:16:14;;;;;;;47.67;30.65;;;;;;;;;;5112502;28;20020;-52
2021/01/15 12:18:40;;;;;;;47.25;30.58;;;;;;;;;;5112311;28;20106;-51
2021/01/15 12:21:06;;;;;;;49.55;31.42;;;;;;;;;;5112478;28;20383;-52
2021/01/15 12:23:32;;;;;;;80.43;45.55;;;;;;;;;;5112402;28;20350;-52
2021/01/15 12:25:58;;;;;;;71.57;43.70;;;;;;;;;;5112347;28;20020;-52
2021/01/15 12:28:24;;;;;;;66.63;43.63;;;;;;;;;;5112483;28;20047;-51
2021/01/15 12:30:53;;;;;;;65.35;42.67;;;;;;;;;;5112320;28;20102;-49
2021/01/15 12:33:20;;;;;;;64.35;39.97;;;;;;;;;;5112224;28;20020;-51
2021/01/15 12:35:47;;;;;;;68.57;42.95;;;;;;;;;;5111871;28;20044;-51
2021/01/15 12:38:17;;;;;;;67.00;40.63;;;;;;;;;;5112214;28;20040;-51
2021/01/15 12:40:44;;;;;;;54.00;33.83;;;;;;;;;;5112326;28;20061;-52
2021/01/15 12:43:11;;;;;;;53.97;33.45;;;;;;;;;;5111801;28;20047;-50
2021/01/15 12:45:38;;;;;;;61.55;38.60;;;;;;;;;;5111934;28;20105;-52
2021/01/15 12:48:05;;;;;;;53.45;33.45;;;;;;;;;;5118356;28;20027;-51
2021/01/15 12:50:31;;;;;;;46.67;28.13;;;;;;;;;;5132515;28;20015;-52
2021/01/15 12:52:58;;;;;;;56.05;34.85;;;;;;;;;;5119763;28;20024;-52
2021/01/15 12:55:24;;;;;;;68.43;39.70;;;;;;;;;;5126862;28;20024;-52
2021/01/15 12:57:54;;;;;;;60.85;39.88;;;;;;;;;;5111948;28;20024;-51
2021/01/15 13:00:20;;;;;;;62.72;40.42;;;;;;;;;;5113918;28;20024;-50
2021/01/15 13:02:46;;;;;;;77.32;46.97;;;;;;;;;;5112200;28;20027;-51
2021/01/15 13:05:14;;;;;;;103.90;56.92;;;;;;;;;;5111715;28;20509;-50
2021/01/15 13:07:40;;;;;;;67.57;41.28;;;;;;;;;;5118738;28;20057;-50
2021/01/15 13:10:07;;;;;;;62.30;40.90;;;;;;;;;;5121452;28;20062;-51
2021/01/15 13:12:33;;;;;;;79.15;52.13;;;;;;;;;;5116899;28;20019;-51
2021/01/15 13:14:59;;;;;;;105.30;63.63;;;;;;;;;;5125083;28;20023;-51
2021/01/15 13:17:25;;;;;;;103.93;66.80;;;;;;;;;;5119593;28;20024;-50
2021/01/15 13:19:51;;;;;;;132.50;86.13;;;;;;;;;;5122963;27;20035;-51
2021/01/15 13:22:17;;;;;;;110.22;69.05;;;;;;;;;;5121537;27;20035;-51
2021/01/15 13:24:44;;;;;;;108.90;68.18;;;;;;;;;;5129244;27;20106;-51
2021/01/15 13:27:10;;;;;;;121.75;73.65;;;;;;;;;;5131950;27;20026;-52
2021/01/15 13:29:36;;;;;;;115.82;72.82;;;;;;;;;;5123273;27;20094;-52
2021/01/15 13:32:02;;;;;;;146.38;90.03;;;;;;;;;;5127979;27;20106;-51
2021/01/15 13:34:28;;;;;;;139.93;88.55;;;;;;;;;;5135746;27;20041;-51
2021/01/15 13:36:58;;;;;;;149.35;92.53;;;;;;;;;;5125110;27;20042;-51
2021/01/15 13:39:24;;;;;;;120.03;75.03;;;;;;;;;;5097129;27;20078;-51
2021/01/15 13:41:50;;;;;;;108.88;68.47;;;;;;;;;;5117764;27;20024;-49
2021/01/15 13:44:16;;;;;;;102.95;65.13;;;;;;;;;;5117907;27;20028;-50
2021/01/15 13:46:42;;;;;;;101.07;62.80;;;;;;;;;;5133398;27;20023;-50
2021/01/15 13:49:08;;;;;;;151.43;97.50;;;;;;;;;;5135465;27;20466;-51
2021/01/15 13:51:34;;;;;;;121.60;76.72;;;;;;;;;;5129779;27;20393;-52
2021/01/15 13:54:01;;;;;;;111.97;74.30;;;;;;;;;;5119101;27;20113;-51
2021/01/15 13:56:27;;;;;;;99.78;67.03;;;;;;;;;;5114744;27;20473;-51
2021/01/15 13:58:53;;;;;;;103.43;67.18;;;;;;;;;;5103774;27;20428;-50
2021/01/15 14:01:19;;;;;;;108.18;68.13;;;;;;;;;;5114315;27;20024;-50
2021/01/15 14:03:46;;;;;;;125.95;67.63;;;;;;;;;;5120538;27;20028;-51
2021/01/15 14:06:12;;;;;;;205.55;110.28;;;;;;;;;;5114838;27;20040;-51
2021/01/15 14:08:38;;;;;;;110.28;63.55;;;;;;;;;;5121987;27;20024;-52
2021/01/15 14:11:04;;;;;;;163.07;91.85;;;;;;;;;;5117085;27;20023;-52
2021/01/15 14:13:30;;;;;;;247.32;130.73;;;;;;;;;;5123500;27;20019;-50
2021/01/15 14:15:56;;;;;;;191.68;106.47;;;;;;;;;;5123033;27;20027;-50